createdAt,value
2023-05-15T00:00:48.669Z,100316.67
2023-05-15T00:03:16.150Z,100313.23
2023-05-15T00:05:42.062Z,100323.20
2023-05-15T00:08:06.954Z,100313.05
2023-05-15T00:10:30.376Z,100314.50
2023-05-15T00:12:55.387Z,100319.09
2023-05-15T00:15:19.819Z,100314.27
2023-05-15T00:17:45.433Z,100322.44
2023-05-15T00:20:10.156Z,100311.02
2023-05-15T00:22:35.495Z,100320.72
2023-05-15T00:24:59.023Z,100310.30
2023-05-15T00:27:23.654Z,100314.56
2023-05-15T00:28:33.793Z,100321.29
2023-05-15T00:30:58.317Z,100318.86
2023-05-15T00:33:24.806Z,100322.02
2023-05-15T00:34:36.149Z,100333.44
2023-05-15T00:35:46.744Z,100323.45
2023-05-15T00:38:12.260Z,100311.72
2023-05-15T00:40:39.208Z,100317.16
2023-05-15T00:43:05.764Z,100316.02
2023-05-15T00:45:32.077Z,100307.58
2023-05-15T00:48:01.663Z,100315.45
2023-05-15T00:50:29.952Z,100305.44
2023-05-15T00:51:41.381Z,100316.45
2023-05-15T00:54:09.526Z,100304.66
2023-05-15T00:56:35.882Z,100303.64
2023-05-15T00:59:06.224Z,100297.28
2023-05-15T01:01:34.303Z,100293.68
2023-05-15T01:02:46.460Z,100295.29
2023-05-15T01:03:55.469Z,100293.98
2023-05-15T01:05:07.339Z,100301.37
2023-05-15T01:07:35.502Z,100293.69
2023-05-15T01:08:48.328Z,100299.90
2023-05-15T01:11:16.236Z,100291.94
2023-05-15T01:13:42.436Z,100288.47
2023-05-15T01:14:52.134Z,100287.22
2023-05-15T01:17:37.418Z,100277.20
2023-05-15T01:18:47.419Z,100285.28
2023-05-15T01:21:39.337Z,100277.30
2023-05-15T01:24:39.508Z,100282.82
2023-05-15T01:26:08.866Z,100281.89
2023-05-15T01:28:46.964Z,100285.38
2023-05-15T01:31:22.636Z,100280.26
2023-05-15T01:33:57.237Z,100279.94
2023-05-15T01:38:15.488Z,100283.22
2023-05-15T01:40:48.333Z,100278.94
2023-05-15T01:43:29.033Z,100275.38
2023-05-15T01:46:16.604Z,100285.22
2023-05-15T01:47:29.507Z,100278.30
2023-05-15T01:49:58.376Z,100273.81
2023-05-15T01:53:51.009Z,100274.73
2023-05-15T01:55:09.595Z,100278.84
2023-05-15T01:57:38.912Z,100276.43
2023-05-15T02:00:10.251Z,100274.09
2023-05-15T02:02:43.649Z,100281.40
2023-05-15T02:05:10.753Z,100278.42
2023-05-15T02:07:36.707Z,100281.30
2023-05-15T02:10:03.139Z,100275.70
2023-05-15T02:12:32.383Z,100282.70
2023-05-15T02:15:00.237Z,100280.24
2023-05-15T02:17:29.210Z,100277.78
2023-05-15T02:19:53.830Z,100282.94
2023-05-15T02:21:03.335Z,100283.96
2023-05-15T02:23:28.154Z,100278.34
2023-05-15T02:24:36.828Z,100275.27
2023-05-15T02:27:14.739Z,100278.09
2023-05-15T02:30:11.334Z,100275.21
2023-05-15T02:33:18.568Z,100279.62
2023-05-15T02:35:57.004Z,100279.06
2023-05-15T02:37:10.535Z,100283.53
2023-05-15T02:39:49.402Z,100283.88
2023-05-15T02:41:01.113Z,100294.25
2023-05-15T02:43:29.220Z,100282.09
2023-05-15T02:44:41.263Z,100291.17
2023-05-15T02:47:08.892Z,100290.02
2023-05-15T02:49:35.319Z,100290.02
2023-05-15T02:52:01.926Z,100288.45
2023-05-15T02:54:27.622Z,100292.59
2023-05-15T02:56:52.677Z,100284.84
2023-05-15T02:59:19.887Z,100285.69
2023-05-15T03:01:46.865Z,100282.12
2023-05-15T03:04:13.751Z,100281.37
2023-05-15T03:06:37.442Z,100281.41
2023-05-15T03:09:04.182Z,100274.81
2023-05-15T03:10:13.567Z,100285.86
2023-05-15T03:13:01.361Z,100283.90
2023-05-15T03:14:10.658Z,100286.62
2023-05-15T03:16:36.883Z,100279.25
2023-05-15T03:17:46.736Z,100293.28
2023-05-15T03:19:03.391Z,100291.70
2023-05-15T03:20:14.712Z,100289.39
2023-05-15T03:22:38.204Z,100294.10
2023-05-15T03:25:03.028Z,100296.38
2023-05-15T03:27:28.745Z,100292.75
2023-05-15T03:29:54.407Z,100290.76
2023-05-15T03:31:04.511Z,100301.34
2023-05-15T03:33:28.132Z,100294.52
2023-05-15T03:35:54.223Z,100290.40
2023-05-15T03:38:20.741Z,100284.75
2023-05-15T03:40:45.594Z,100285.09
2023-05-15T03:43:11.963Z,100282.53
2023-05-15T03:45:36.600Z,100288.70
2023-05-15T03:48:01.134Z,100285.20
2023-05-15T03:50:25.362Z,100280.48
2023-05-15T03:51:36.076Z,100284.94
2023-05-15T03:54:04.384Z,100275.45
2023-05-15T03:55:13.483Z,100282.53
2023-05-15T03:57:35.263Z,100284.24
2023-05-15T03:58:44.833Z,100286.80
2023-05-15T04:01:09.390Z,100284.49
2023-05-15T04:03:33.921Z,100291.14
2023-05-15T04:06:00.712Z,100290.61
2023-05-15T04:07:10.216Z,100291.37
2023-05-15T04:09:34.967Z,100289.64
2023-05-15T04:11:59.839Z,100288.89
2023-05-15T04:13:09.397Z,100294.69
2023-05-15T04:14:19.029Z,100289.95
2023-05-15T04:16:43.391Z,100292.98
2023-05-15T04:19:09.154Z,100293.17
2023-05-15T04:20:21.673Z,100290.92
2023-05-15T04:21:32.271Z,100295.18
2023-05-15T04:22:41.981Z,100298.37
2023-05-15T04:26:14.453Z,100290.12
2023-05-15T04:28:40.272Z,100286.80
2023-05-15T04:31:06.913Z,100291.34
2023-05-15T04:33:31.896Z,100293.88
2023-05-15T04:36:15.303Z,100294.84
2023-05-15T04:39:48.081Z,100290.41
2023-05-15T04:42:12.354Z,100287.91
2023-05-15T04:44:58.086Z,100279.84
2023-05-15T04:47:22.161Z,100287.78
2023-05-15T04:49:50.134Z,100288.27
2023-05-15T04:52:14.215Z,100283.80
2023-05-15T04:54:37.865Z,100282.62
2023-05-15T04:57:21.923Z,100281.50
2023-05-15T04:59:47.372Z,100283.31
2023-05-15T05:02:12.354Z,100281.60
2023-05-15T05:04:57.046Z,100286.80
2023-05-15T05:07:22.056Z,100278.64
2023-05-15T05:09:46.185Z,100287.60
2023-05-15T05:12:12.874Z,100276.86
2023-05-15T05:14:36.934Z,100288.66
2023-05-15T05:17:03.284Z,100284.52
2023-05-15T05:19:28.272Z,100287.59
2023-05-15T05:21:52.106Z,100280.18
2023-05-15T05:24:16.107Z,100289.31
2023-05-15T05:26:41.807Z,100287.06
2023-05-15T05:29:05.068Z,100283.05
2023-05-15T05:31:30.886Z,100274.13
2023-05-15T05:33:57.166Z,100273.99
2023-05-15T05:35:06.570Z,100272.50
2023-05-15T05:37:30.797Z,100268.77
2023-05-15T05:39:55.280Z,100268.59
2023-05-15T05:41:05.128Z,100269.18
2023-05-15T05:43:29.281Z,100274.36
2023-05-15T05:45:55.857Z,100279.90
2023-05-15T05:47:05.782Z,100281.77
2023-05-15T05:49:32.002Z,100275.47
2023-05-15T05:50:41.808Z,100271.20
2023-05-15T05:53:05.711Z,100263.64
2023-05-15T05:55:30.854Z,100262.17
2023-05-15T05:57:58.422Z,100267.06
2023-05-15T06:00:25.828Z,100266.86
2023-05-15T06:01:35.063Z,100266.43
2023-05-15T06:04:02.268Z,100261.27
2023-05-15T06:06:26.987Z,100259.52
2023-05-15T06:08:50.995Z,100251.86
2023-05-15T06:11:15.397Z,100257.83
2023-05-15T06:13:39.991Z,100252.92
2023-05-15T06:16:05.924Z,100256.67
2023-05-15T06:18:30.006Z,100250.84
2023-05-15T06:20:54.143Z,100253.50
2023-05-15T06:23:18.797Z,100249.70
2023-05-15T06:25:42.978Z,100252.47
2023-05-15T06:28:08.530Z,100242.67
2023-05-15T06:29:18.643Z,100248.23
2023-05-15T06:30:28.826Z,100251.64
2023-05-15T06:32:53.337Z,100243.23
2023-05-15T06:34:02.871Z,100252.02
2023-05-15T06:36:28.821Z,100243.28
2023-05-15T06:38:55.352Z,100243.84
2023-05-15T06:41:22.162Z,100253.02
2023-05-15T06:44:07.721Z,100243.78
2023-05-15T06:46:32.747Z,100251.55
2023-05-15T06:48:57.930Z,100253.33
2023-05-15T06:51:23.278Z,100247.04
2023-05-15T06:53:47.874Z,100243.50
2023-05-15T06:54:57.501Z,100249.56
2023-05-15T06:57:23.425Z,100243.27
2023-05-15T06:58:33.565Z,100238.62
2023-05-15T07:00:59.345Z,100238.60
2023-05-15T07:03:25.267Z,100234.86
2023-05-15T07:04:33.888Z,100240.20
2023-05-15T07:06:59.590Z,100235.78
2023-05-15T07:09:25.198Z,100240.69
2023-05-15T07:10:34.638Z,100237.44
2023-05-15T07:12:59.662Z,100228.66
2023-05-15T07:15:25.346Z,100233.20
2023-05-15T07:16:34.254Z,100238.20
2023-05-15T07:17:42.995Z,100240.27
2023-05-15T07:18:51.836Z,100235.53
2023-05-15T07:20:00.735Z,100234.39
2023-05-15T07:22:29.313Z,100237.37
2023-05-15T07:23:38.187Z,100234.31
2023-05-15T07:24:48.265Z,100237.91
2023-05-15T07:27:14.186Z,100230.59
2023-05-15T07:29:37.659Z,100233.06
2023-05-15T07:32:04.304Z,100223.96
2023-05-15T07:34:29.392Z,100217.72
2023-05-15T07:36:53.053Z,100222.00
2023-05-15T07:39:17.854Z,100219.05
2023-05-15T07:41:41.724Z,100221.38
2023-05-15T07:44:06.948Z,100220.85
2023-05-15T08:01:08.107Z,100219.47
2023-05-15T08:03:33.934Z,100217.98
2023-05-15T08:04:43.837Z,100215.66
2023-05-15T08:05:52.505Z,100214.41
2023-05-15T08:07:02.612Z,100208.94
2023-05-15T08:09:28.042Z,100204.90
2023-05-15T08:11:53.668Z,100203.84
2023-05-15T08:13:03.126Z,100208.52
2023-05-15T08:15:29.215Z,100200.25
2023-05-15T08:17:53.312Z,100215.09
2023-05-15T08:20:19.619Z,100195.36
2023-05-15T08:22:46.013Z,100196.44
2023-05-15T08:25:10.141Z,100194.08
2023-05-15T08:27:35.456Z,100189.66
2023-05-15T08:28:45.669Z,100189.20
2023-05-15T08:31:11.362Z,100185.41
2023-05-15T08:33:36.034Z,100191.09
2023-05-15T08:36:03.403Z,100184.92
2023-05-15T08:38:27.367Z,100180.23
2023-05-15T08:40:55.270Z,100179.38
2023-05-15T08:43:41.151Z,100191.25
2023-05-15T08:46:07.716Z,100190.18
2023-05-15T08:48:38.410Z,100184.85
2023-05-15T08:51:13.960Z,100184.25
2023-05-15T08:53:41.244Z,100177.50
2023-05-15T08:56:07.232Z,100176.00
2023-05-15T08:58:34.209Z,100168.14
2023-05-15T09:01:00.332Z,100169.61
2023-05-15T09:03:25.593Z,100177.67
2023-05-15T09:05:52.728Z,100176.39
2023-05-15T09:08:21.504Z,100166.20
2023-05-15T09:10:51.564Z,100161.36
2023-05-15T09:13:21.540Z,100158.81
2023-05-15T09:15:48.796Z,100166.84
2023-05-15T09:18:25.197Z,100161.36
2023-05-15T09:20:51.077Z,100161.77
2023-05-15T09:23:42.873Z,100161.96
2023-05-15T09:24:53.462Z,100170.56
2023-05-15T09:27:20.872Z,100143.45
2023-05-15T09:29:53.127Z,100157.40
2023-05-15T09:32:20.390Z,100155.91
2023-05-15T09:35:30.549Z,100152.98
2023-05-15T09:38:01.769Z,100150.43
2023-05-15T09:40:30.270Z,100145.13
2023-05-15T09:42:58.819Z,100149.11
2023-05-15T09:45:37.788Z,100152.08
2023-05-15T09:48:05.280Z,100140.02
2023-05-15T09:50:34.618Z,100147.05
2023-05-15T09:53:00.774Z,100150.34
2023-05-15T09:55:48.714Z,100144.42
2023-05-15T09:59:34.012Z,100138.77
2023-05-15T10:02:02.086Z,100131.58
2023-05-15T10:04:31.973Z,100136.24
2023-05-15T10:06:57.019Z,100139.50
2023-05-15T10:09:25.214Z,100138.45
2023-05-15T10:11:55.069Z,100142.88
2023-05-15T10:14:23.499Z,100143.95
2023-05-15T10:16:48.882Z,100126.96
2023-05-15T10:19:21.515Z,100133.99
2023-05-15T10:21:48.994Z,100137.58
2023-05-15T10:24:16.098Z,100135.91
2023-05-15T10:27:00.747Z,100129.72
2023-05-15T10:29:28.655Z,100121.72
2023-05-15T10:31:55.618Z,100129.13
2023-05-15T10:34:24.449Z,100115.58
2023-05-15T10:36:54.118Z,100111.98
2023-05-15T10:39:26.315Z,100119.38
2023-05-15T10:41:57.822Z,100123.84
2023-05-15T10:43:11.933Z,100127.17
2023-05-15T10:45:39.269Z,100120.64
2023-05-15T10:48:07.026Z,100113.46
2023-05-15T10:50:33.083Z,100113.67
2023-05-15T10:52:58.372Z,100111.97
2023-05-15T10:55:25.952Z,100098.83
2023-05-15T10:57:54.791Z,100111.13
2023-05-15T11:00:27.808Z,100101.34
2023-05-15T11:02:56.606Z,100107.90
2023-05-15T11:05:52.305Z,100101.79
2023-05-15T11:08:31.441Z,100102.45
2023-05-15T11:09:42.118Z,100107.88
2023-05-15T11:13:27.374Z,100094.12
2023-05-15T11:15:58.396Z,100092.20
2023-05-15T11:18:26.187Z,100085.02
2023-05-15T11:20:56.185Z,100085.04
2023-05-15T11:23:41.373Z,100090.17
2023-05-15T11:26:12.831Z,100069.60
2023-05-15T11:27:25.331Z,100074.66
2023-05-15T11:30:21.629Z,100069.41
2023-05-15T11:33:09.312Z,100056.06
2023-05-15T11:35:51.319Z,100058.59
2023-05-15T11:38:24.436Z,100053.32
2023-05-15T11:41:03.963Z,100045.25
2023-05-15T11:43:36.055Z,100043.36
2023-05-15T11:46:09.787Z,100048.88
2023-05-15T11:48:35.334Z,100048.88
2023-05-15T11:49:43.785Z,100049.09
2023-05-15T11:52:08.472Z,100039.12
2023-05-15T11:54:34.653Z,100042.92
2023-05-15T11:57:08.034Z,100044.41
2023-05-15T11:59:35.348Z,100037.63
2023-05-15T12:02:06.751Z,100039.77
2023-05-15T12:04:44.953Z,100034.87
2023-05-15T12:07:11.095Z,100030.02
2023-05-15T12:09:40.932Z,100032.12
2023-05-15T12:12:10.589Z,100027.66
2023-05-15T12:14:35.229Z,100025.98
2023-05-15T12:17:03.825Z,100023.22
2023-05-15T12:19:29.737Z,100019.38
2023-05-15T12:21:55.457Z,100021.73
2023-05-15T12:25:30.866Z,100025.97
2023-05-15T12:27:56.236Z,100029.16
2023-05-15T12:40:38.746Z,100009.67
2023-05-15T12:43:07.417Z,100010.32
2023-05-15T12:45:34.781Z,99998.66
2023-05-15T12:48:00.615Z,99998.03
2023-05-15T12:50:28.573Z,100006.08
2023-05-15T12:53:06.409Z,100006.27
2023-05-15T12:55:37.040Z,100009.67
2023-05-15T12:58:08.886Z,100005.22
2023-05-15T12:59:20.640Z,100013.03
2023-05-15T13:01:47.607Z,100011.98
2023-05-15T13:04:13.863Z,100006.48
2023-05-15T13:06:46.737Z,100006.48
2023-05-15T13:09:09.489Z,100009.23
2023-05-15T13:11:44.757Z,100002.06
2023-05-15T13:12:54.374Z,100000.96
2023-05-15T13:17:02.146Z,99992.53
2023-05-15T13:19:30.449Z,100006.30
2023-05-15T13:22:01.477Z,100011.98
2023-05-15T13:24:47.915Z,100011.38
2023-05-15T13:27:11.740Z,100014.96
2023-05-15T13:29:36.073Z,100013.91
2023-05-15T13:32:00.190Z,100007.35
2023-05-15T13:34:26.221Z,100002.89
2023-05-15T13:36:51.856Z,100005.86
2023-05-15T13:39:16.961Z,99998.23
2023-05-15T13:41:43.053Z,99994.42
2023-05-15T13:44:08.349Z,100002.91
2023-05-15T13:46:33.583Z,100004.60
2023-05-15T13:49:03.569Z,100007.75
2023-05-15T13:51:34.365Z,100011.59
2023-05-15T13:54:02.032Z,100003.73
2023-05-15T13:56:27.145Z,100002.45
2023-05-15T13:58:53.023Z,99999.27
2023-05-15T14:01:16.911Z,100002.23
2023-05-15T14:03:41.728Z,99996.50
2023-05-15T14:06:08.524Z,99993.74
2023-05-15T14:08:51.623Z,99987.17
2023-05-15T14:11:16.715Z,99981.23
2023-05-15T14:14:52.714Z,99985.05
2023-05-15T14:16:03.694Z,99994.97
2023-05-15T14:17:14.826Z,99989.89
2023-05-15T14:19:41.612Z,99988.63
2023-05-15T14:20:50.558Z,99986.48
2023-05-15T14:23:15.418Z,99986.95
2023-05-15T14:25:40.943Z,99986.51
2023-05-15T14:28:04.912Z,99985.88
2023-05-15T14:30:30.695Z,99978.89
2023-05-15T14:32:54.076Z,99969.77
2023-05-15T14:35:19.973Z,99966.61
2023-05-15T14:37:45.649Z,99976.95
2023-05-15T14:40:12.094Z,99975.47
2023-05-15T14:41:21.463Z,99975.03
2023-05-15T14:43:45.757Z,99958.96
2023-05-15T14:44:54.804Z,99968.48
2023-05-15T14:46:05.202Z,99964.66
2023-05-15T14:48:29.463Z,99971.05
2023-05-15T14:50:53.624Z,99971.88
2023-05-15T14:52:09.961Z,99966.16
2023-05-15T14:55:04.896Z,99966.14
2023-05-15T14:56:03.639Z,99970.34
2023-05-15T14:58:28.867Z,99960.86
2023-05-15T15:00:53.548Z,99962.77
2023-05-15T15:03:18.493Z,99955.56
2023-05-15T15:05:43.772Z,99957.69
2023-05-15T15:08:11.476Z,99950.67
2023-05-15T15:10:39.174Z,99955.30
2023-05-15T15:13:04.373Z,99945.77
2023-05-15T15:15:30.296Z,99937.94
2023-05-15T15:17:58.447Z,99944.08
2023-05-15T15:20:26.101Z,99941.54
2023-05-15T15:22:52.333Z,99931.35
2023-05-15T15:25:18.188Z,99934.97
2023-05-15T15:26:27.180Z,99941.06
2023-05-15T15:28:55.799Z,99931.77
2023-05-15T15:31:21.243Z,99935.56
2023-05-15T15:33:47.364Z,99933.89
2023-05-15T15:36:12.632Z,99928.39
2023-05-15T15:38:39.208Z,99930.94
2023-05-15T15:41:04.999Z,99931.56
2023-05-15T15:43:28.799Z,99934.31
2023-05-15T15:45:54.715Z,99926.92
2023-05-15T15:48:21.206Z,99934.09
2023-05-15T15:49:31.666Z,99941.91
2023-05-15T15:51:55.666Z,99936.45
2023-05-15T15:54:19.713Z,99939.59
2023-05-15T15:56:43.765Z,99945.97
2023-05-15T15:59:07.194Z,99932.61
2023-05-15T16:01:32.606Z,99937.06
2023-05-15T16:03:57.362Z,99942.77
2023-05-15T16:06:23.876Z,99936.44
2023-05-15T16:07:34.195Z,99944.20
2023-05-15T16:10:10.661Z,99940.44
2023-05-15T16:12:27.644Z,99939.78
2023-05-15T16:14:51.172Z,99929.86
2023-05-15T16:17:15.991Z,99931.12
2023-05-15T16:19:41.395Z,99931.71
2023-05-15T16:22:05.202Z,99939.55
2023-05-15T16:24:52.530Z,99938.05
2023-05-15T16:27:38.377Z,99931.89
2023-05-15T16:30:01.923Z,99934.02
2023-05-15T16:31:18.369Z,99942.84
2023-05-15T16:33:43.810Z,99940.13
2023-05-15T16:36:07.676Z,99930.39
2023-05-15T16:38:32.350Z,99929.94
2023-05-15T16:41:01.722Z,99930.36
2023-05-15T16:43:27.407Z,99925.28
2023-05-15T16:45:51.815Z,99935.61
2023-05-15T16:48:16.515Z,99930.91
2023-05-15T16:50:41.031Z,99928.75
2023-05-15T16:53:04.996Z,99931.28
2023-05-15T16:55:32.998Z,99939.73
2023-05-15T16:57:57.280Z,99934.82
2023-05-15T17:00:22.736Z,99940.94
2023-05-15T17:02:47.610Z,99932.90
2023-05-15T17:05:13.021Z,99939.64
2023-05-15T17:07:38.563Z,99930.77
2023-05-15T17:08:47.950Z,99937.66
2023-05-15T17:11:13.327Z,99934.09
2023-05-15T17:13:40.210Z,99934.71
2023-05-15T17:16:04.957Z,99933.42
2023-05-15T17:18:29.770Z,99936.95
2023-05-15T17:20:53.415Z,99947.70
2023-05-15T17:23:17.260Z,99945.16
2023-05-15T17:25:42.151Z,99946.60
2023-05-15T17:26:51.583Z,99953.65
2023-05-15T17:29:34.871Z,99945.50
2023-05-15T17:31:59.111Z,99937.84
2023-05-15T17:34:23.773Z,99944.75
2023-05-15T17:36:48.386Z,99952.55
2023-05-15T17:39:13.357Z,99939.41
2023-05-15T17:41:38.683Z,99956.47
2023-05-15T17:42:47.758Z,99963.52
2023-05-15T17:43:56.767Z,99957.56
2023-05-15T17:45:07.532Z,99963.05
2023-05-15T17:47:32.162Z,99954.25
2023-05-15T17:49:58.593Z,99959.27
2023-05-15T17:51:09.202Z,99965.28
2023-05-15T17:53:35.153Z,99959.87
2023-05-15T17:56:00.741Z,99963.21
2023-05-15T17:58:24.910Z,99965.28
2023-05-15T17:59:34.912Z,99967.70
2023-05-15T18:00:44.285Z,99969.78
2023-05-15T18:03:09.929Z,99971.56
2023-05-15T18:04:20.205Z,99978.20
2023-05-15T18:05:29.345Z,99980.10
2023-05-15T18:06:39.104Z,99980.94
2023-05-15T18:09:24.962Z,99974.47
2023-05-15T18:11:48.844Z,99981.86
2023-05-15T18:12:59.099Z,99984.28
2023-05-15T18:15:25.629Z,99975.46
2023-05-15T18:16:36.121Z,99987.13
2023-05-15T18:19:02.093Z,99989.92
2023-05-15T18:21:28.455Z,99989.67
2023-05-15T18:22:38.298Z,99999.40
2023-05-15T18:23:47.274Z,99998.09
2023-05-15T18:26:12.009Z,99999.40
2023-05-15T18:27:21.003Z,99994.77
2023-05-15T18:29:46.454Z,99994.86
2023-05-15T18:32:10.584Z,99996.96
2023-05-15T18:34:34.559Z,100001.77
2023-05-15T18:37:00.320Z,99994.77
2023-05-15T18:39:25.803Z,99999.41
2023-05-15T18:41:50.577Z,100007.16
2023-05-15T18:42:59.706Z,100007.83
2023-05-15T18:45:26.190Z,100012.57
2023-05-15T18:47:51.473Z,100012.09
2023-05-15T18:50:17.366Z,100010.95
2023-05-15T18:52:44.030Z,100004.73
2023-05-15T18:55:11.808Z,100014.55
2023-05-15T18:57:37.804Z,100008.78
2023-05-15T19:00:03.512Z,100015.19
2023-05-15T19:02:27.254Z,100017.63
2023-05-15T19:04:53.085Z,100022.98
2023-05-15T19:07:18.966Z,100020.90
2023-05-15T19:09:44.249Z,100019.56
2023-05-15T19:12:10.325Z,100012.58
2023-05-15T19:14:35.011Z,100015.69
2023-05-15T19:15:54.419Z,100026.06
2023-05-15T19:18:18.633Z,100009.38
2023-05-15T19:20:44.261Z,100016.91
2023-05-15T19:23:09.161Z,100015.58
2023-05-15T19:25:32.644Z,100010.48
2023-05-15T19:27:56.905Z,100019.26
2023-05-15T19:30:42.064Z,100017.55
2023-05-15T19:33:07.856Z,100022.19
2023-05-15T19:35:34.530Z,100024.92
2023-05-15T19:38:01.108Z,100026.14
2023-05-15T19:40:25.312Z,100024.61
2023-05-15T19:42:49.136Z,100023.09
2023-05-15T19:45:18.253Z,100021.76
2023-05-15T19:47:42.478Z,100017.69
2023-05-15T19:50:07.793Z,100026.45
2023-05-15T19:52:33.027Z,100030.03
2023-05-15T19:54:58.702Z,100031.73
2023-05-15T19:57:24.627Z,100029.75
2023-05-15T19:59:48.243Z,100030.96
2023-05-15T20:02:13.034Z,100031.80
2023-05-15T20:03:23.075Z,100038.36
2023-05-15T20:05:50.215Z,100037.27
2023-05-15T20:08:14.640Z,100039.17
2023-05-15T20:10:41.274Z,100049.05
2023-05-15T20:13:05.872Z,100038.48
2023-05-15T20:15:32.144Z,100048.45
2023-05-15T20:17:58.484Z,100051.25
2023-05-15T20:20:27.248Z,100049.22
2023-05-15T20:22:52.569Z,100051.81
2023-05-15T20:25:16.816Z,100053.39
2023-05-15T20:27:42.527Z,100056.64
2023-05-15T20:30:09.168Z,100060.47
2023-05-15T20:32:33.819Z,100056.20
2023-05-15T20:35:00.789Z,100060.14
2023-05-15T20:36:10.435Z,100071.47
2023-05-15T20:38:38.024Z,100062.55
2023-05-15T20:41:02.453Z,100062.25
2023-05-15T20:43:28.109Z,100062.95
2023-05-15T20:45:55.691Z,100067.05
2023-05-15T20:48:21.988Z,100060.94
2023-05-15T20:50:46.582Z,100067.59
2023-05-15T20:53:11.802Z,100059.07
2023-05-15T20:55:37.717Z,100071.37
2023-05-15T20:58:04.078Z,100070.02
2023-05-15T21:00:29.064Z,100065.76
2023-05-15T21:02:55.483Z,100062.69
2023-05-15T21:05:21.660Z,100060.11
2023-05-15T21:07:47.269Z,100059.98
2023-05-15T21:10:12.744Z,100049.38
2023-05-15T21:12:36.556Z,100055.02
2023-05-15T21:15:02.707Z,100051.80
2023-05-15T21:17:26.368Z,100055.91
2023-05-15T21:19:50.850Z,100059.14
2023-05-15T21:22:17.686Z,100053.02
2023-05-15T21:25:04.099Z,100059.33
2023-05-15T21:27:28.738Z,100051.33
2023-05-15T21:29:52.268Z,100056.80
2023-05-15T21:32:23.565Z,100058.68
2023-05-15T21:35:57.870Z,100057.31
2023-05-15T21:38:22.150Z,100058.16
2023-05-15T21:40:47.189Z,100064.30
2023-05-15T21:41:56.212Z,100063.78
2023-05-15T21:44:21.005Z,100064.14
2023-05-15T21:46:46.233Z,100069.59
2023-05-15T21:49:12.577Z,100064.48
2023-05-15T21:50:21.756Z,100062.25
2023-05-15T21:52:52.330Z,100066.52
2023-05-15T21:55:16.192Z,100071.97
2023-05-15T22:05:59.837Z,100071.30
2023-05-15T22:08:23.852Z,100067.03
2023-05-15T22:10:50.161Z,100070.86
2023-05-15T22:13:14.144Z,100074.10
2023-05-15T22:15:37.635Z,100074.66
2023-05-15T22:18:05.997Z,100064.60
2023-05-15T22:20:33.410Z,100062.73
2023-05-15T22:22:59.055Z,100065.45
2023-05-15T22:25:24.034Z,100063.42
2023-05-15T22:27:49.240Z,100071.27
2023-05-15T22:30:14.972Z,100061.20
2023-05-15T22:32:39.378Z,100059.33
2023-05-15T22:35:05.464Z,100068.36
2023-05-15T22:37:32.118Z,100068.36
2023-05-15T22:39:58.105Z,100059.49
2023-05-15T22:42:24.142Z,100055.89
2023-05-15T22:44:49.477Z,100066.64
2023-05-15T22:47:13.399Z,100055.72
2023-05-15T22:49:37.868Z,100061.48
2023-05-15T22:52:05.055Z,100056.20
2023-05-15T22:54:28.728Z,100052.81
2023-05-15T22:56:53.835Z,100057.92
2023-05-15T22:59:19.361Z,100049.57
2023-05-15T23:01:46.917Z,100044.96
2023-05-15T23:04:13.606Z,100047.20
2023-05-15T23:06:43.450Z,100043.30
2023-05-15T23:09:08.345Z,100032.22
2023-05-15T23:11:33.314Z,100036.97
2023-05-15T23:14:00.371Z,100039.20
2023-05-15T23:16:26.547Z,100027.59
2023-05-15T23:18:52.276Z,100025.20
2023-05-15T23:21:38.172Z,100033.92
2023-05-15T23:24:02.709Z,100032.88
2023-05-15T23:26:27.985Z,100037.83
2023-05-15T23:28:54.006Z,100024.85
2023-05-15T23:31:20.258Z,100022.83
2023-05-15T23:33:45.466Z,100022.12
2023-05-15T23:35:01.109Z,100029.61
2023-05-15T23:37:27.964Z,100015.64
2023-05-15T23:39:54.425Z,100025.17
2023-05-15T23:42:19.278Z,100025.33
2023-05-15T23:44:44.546Z,100024.45
2023-05-15T23:47:10.077Z,100023.08
2023-05-15T23:49:36.145Z,100018.98
2023-05-15T23:50:44.581Z,100024.70
2023-05-15T23:53:10.065Z,100013.87
2023-05-15T23:55:36.864Z,100021.51
2023-05-15T23:56:47.047Z,100028.23
2023-05-15T23:59:21.561Z,100016.70
